Grand Forks Air Force Base
KRDR : rendu visible

Aérodrome :











RETROUVEZ-NOUS SUR...

 
LOGIN :

S'inscrire | Disclaimer

   EN    FR    IT 

 









Légende :    VFR   VFR Marginal   IFR   IFR Intensif   IFR Très Intensif
Visi : 
Plafond : 
>= 8 km
>= 3000ft
5 à 8 km
1000 à 3000 ft
1500m à 5 km
500 à 1000 ft
800 à 1500m
200 à 500 ft
< 800m
< 200 ft
Symboles :   Orages  Brouillard  Fortes neiges  Fortes précipitations  Vent > 20 kt






- Altitude de l'aérodrome : 913 ft


KRDR - Grand Forks Air Force Base

DERNIER METAR :
  • 301656Z 17010KT 10SM FEW200 M04/M08 A3009 RMK AO2A SLP213 T10411079 $

METARs EXPIRÉS :
  • 301556Z 17010KT 10SM FEW250 M07/M09 A3010 RMK AO2A SLP217 T10731093 $
  • 301456Z 16008KT 10SM FEW250 M10/M11 A3012 RMK AO2A SLP225 T11011115 57023 $

TAF TAF KRDR
Valide du 30 à 10h jusqu'au 01 à 16h UTC


301000Z 3010/0116 18010G15KT 9999 FEW250 QNH2988INS TX02/3019Z TNM13/3010Z
FIR KZMP / Amérique du Nord



MET'MAP, la Météo Aéronautique d'un coup d'oeil ! - Copyright ORBIFLY Décembre 2007 - Disclaimer

ORBIFLY MET'MAP TEAM :

Programmation & Développement : Alexandra Zaïnal
Sur une idée originale de : Baudouin d'Aumeries
Assistance à la programmation : Marc-Olivier Méhu
Soutien technique & logistique : Manuel Goepfert

Contact : metmap@orbifly.com




SOURCES & CREDITS :

   NOAA       Earth
Advisory